createdAt,value
2018-06-04T00:02:04.013Z,21.70
2018-06-04T00:04:32.747Z,21.70
2018-06-04T00:07:01.564Z,21.70
2018-06-04T00:09:30.342Z,21.70
2018-06-04T00:11:59.128Z,21.70
2018-06-04T00:14:27.869Z,21.70
2018-06-04T00:16:56.647Z,21.60
2018-06-04T00:19:25.478Z,21.60
2018-06-04T00:21:54.204Z,21.60
2018-06-04T00:26:51.482Z,21.50
2018-06-04T00:29:20.226Z,21.50
2018-06-04T00:31:48.996Z,21.40
2018-06-04T00:34:17.808Z,21.30
2018-06-04T00:36:53.176Z,21.20
2018-06-04T00:39:21.970Z,21.10
2018-06-04T00:44:19.229Z,21.20
2018-06-04T00:46:48.001Z,21.30
2018-06-04T00:49:16.776Z,21.40
2018-06-04T00:51:45.523Z,21.20
2018-06-04T00:54:14.284Z,21.20
2018-06-04T00:56:43.108Z,21.30
2018-06-04T00:59:11.843Z,21.30
2018-06-04T01:01:40.601Z,21.10
2018-06-04T01:04:09.332Z,21.20
2018-06-04T01:06:38.111Z,21.20
2018-06-04T01:09:08.092Z,21.10
2018-06-04T01:11:36.874Z,21.20
2018-06-04T01:14:05.654Z,21.30
2018-06-04T01:16:34.425Z,21.40
2018-06-04T01:19:03.189Z,21.40
2018-06-04T01:21:31.968Z,21.30
2018-06-04T01:24:00.734Z,21.30
2018-06-04T01:26:29.542Z,21.20
2018-06-04T01:28:58.278Z,21.10
2018-06-04T01:31:27.068Z,21.00
2018-06-04T01:33:55.844Z,21.00
2018-06-04T01:38:53.064Z,21.20
2018-06-04T01:41:21.851Z,21.20
2018-06-04T01:43:50.698Z,21.20
2018-06-04T01:46:19.456Z,21.30
2018-06-04T01:48:48.192Z,21.30
2018-06-04T01:51:16.986Z,21.30
2018-06-04T01:53:45.750Z,21.30
2018-06-04T01:56:14.510Z,21.00
2018-06-04T01:58:43.344Z,21.00
2018-06-04T02:01:12.084Z,21.00
2018-06-04T02:03:40.853Z,20.90
2018-06-04T02:06:09.608Z,20.90
2018-06-04T02:08:38.373Z,20.90
2018-06-04T02:11:07.156Z,20.90
2018-06-04T02:16:04.969Z,20.90
2018-06-04T02:18:33.718Z,20.90
2018-06-04T02:21:02.508Z,20.90
2018-06-04T02:23:31.367Z,20.80
2018-06-04T02:26:00.143Z,20.90
2018-06-04T02:28:28.897Z,21.00
2018-06-04T02:30:57.671Z,21.10
2018-06-04T02:35:55.001Z,20.90
2018-06-04T02:38:23.748Z,20.80
2018-06-04T02:43:21.006Z,20.90
2018-06-04T02:45:49.729Z,20.90
2018-06-04T02:48:18.493Z,20.90
2018-06-04T02:50:47.305Z,20.70
2018-06-04T02:53:16.070Z,20.80
2018-06-04T02:55:44.857Z,20.90
2018-06-04T03:03:10.534Z,20.80
2018-06-04T03:05:39.302Z,20.90
2018-06-04T03:08:08.058Z,20.90
2018-06-04T03:10:36.861Z,20.90
2018-06-04T03:13:05.840Z,20.90
2018-06-04T03:15:34.588Z,20.90
2018-06-04T03:18:03.333Z,20.90
2018-06-04T03:20:32.179Z,20.90
2018-06-04T03:23:00.930Z,20.90
2018-06-04T03:25:29.713Z,21.00
2018-06-04T03:27:58.460Z,21.00
2018-06-04T03:30:27.234Z,21.00
2018-06-04T03:32:55.988Z,21.00
2018-06-04T03:35:24.832Z,21.00
2018-06-04T03:37:53.597Z,20.90
2018-06-04T03:40:22.320Z,20.90
2018-06-04T03:45:19.566Z,20.90
2018-06-04T03:47:48.357Z,20.80
2018-06-04T03:50:17.105Z,20.70
2018-06-04T03:52:45.856Z,20.80
2018-06-04T03:55:14.621Z,20.70
2018-06-04T03:57:43.366Z,20.80
2018-06-04T04:00:12.106Z,20.80
2018-06-04T04:02:40.858Z,20.70
2018-06-04T04:05:09.989Z,20.70
2018-06-04T04:07:38.761Z,20.70
2018-06-04T04:10:08.313Z,20.80
2018-06-04T04:12:37.177Z,20.70
2018-06-04T04:15:05.985Z,20.70
2018-06-04T04:17:34.859Z,20.70
2018-06-04T04:20:03.631Z,20.80
2018-06-04T04:22:32.416Z,20.90
2018-06-04T04:25:01.203Z,20.80
2018-06-04T04:27:29.909Z,20.90
2018-06-04T04:29:58.693Z,20.90
2018-06-04T04:32:27.464Z,20.80
2018-06-04T04:35:01.781Z,20.70
2018-06-04T04:37:30.573Z,20.80
2018-06-04T04:39:59.304Z,20.80
2018-06-04T04:47:26.121Z,21.00
2018-06-04T04:49:54.915Z,21.10
2018-06-04T04:52:23.707Z,21.20
2018-06-04T04:54:52.469Z,21.20
2018-06-04T04:57:21.286Z,21.30
2018-06-04T04:59:50.035Z,21.30
2018-06-04T05:02:18.822Z,21.30
2018-06-04T05:04:47.580Z,21.30
2018-06-04T05:07:16.329Z,21.40
2018-06-04T05:09:45.112Z,21.30
2018-06-04T05:12:18.329Z,21.40
2018-06-04T05:14:47.095Z,21.50
2018-06-04T05:17:15.886Z,21.60
2018-06-04T05:19:44.753Z,21.60
2018-06-04T05:22:13.519Z,21.60
2018-06-04T05:27:10.758Z,21.60
2018-06-04T05:29:39.743Z,21.60
2018-06-04T05:32:08.482Z,21.60
2018-06-04T05:34:37.300Z,21.70
2018-06-04T05:37:06.165Z,21.80
2018-06-04T05:42:04.520Z,21.70
2018-06-04T05:44:33.307Z,21.70
2018-06-04T05:47:02.072Z,21.70
2018-06-04T05:49:31.828Z,21.70
2018-06-04T05:52:00.574Z,21.70
2018-06-04T05:54:29.419Z,21.80
2018-06-04T05:59:26.652Z,21.90
2018-06-04T06:01:55.401Z,22.00
2018-06-04T06:04:24.153Z,21.90
2018-06-04T06:06:52.898Z,21.90
2018-06-04T06:09:21.637Z,21.90
2018-06-04T06:19:16.742Z,22.00
2018-06-04T06:21:45.563Z,21.90
2018-06-04T06:24:14.333Z,22.00
2018-06-04T06:26:43.346Z,22.00
2018-06-04T06:29:12.068Z,22.00
2018-06-04T06:31:40.833Z,22.00
2018-06-04T06:34:09.589Z,22.10
2018-06-04T06:36:38.992Z,22.00
2018-06-04T06:39:08.677Z,22.00
2018-06-04T06:41:37.761Z,22.00
2018-06-04T06:44:06.552Z,22.00
2018-06-04T06:46:35.281Z,22.10
2018-06-04T06:49:04.050Z,22.00
2018-06-04T06:51:32.805Z,22.00
2018-06-04T06:54:01.591Z,22.10
2018-06-04T06:56:30.322Z,22.10
2018-06-04T06:58:59.125Z,22.10
2018-06-04T07:01:27.898Z,22.10
2018-06-04T07:03:56.672Z,22.10
2018-06-04T07:06:25.507Z,22.10
2018-06-04T07:08:54.375Z,22.10
2018-06-04T07:11:23.123Z,22.20
2018-06-04T07:16:20.315Z,22.10
2018-06-04T07:18:49.223Z,22.20
2018-06-04T07:21:18.037Z,22.20
2018-06-04T07:23:46.841Z,22.20
2018-06-04T07:28:44.033Z,22.30
2018-06-04T07:31:12.787Z,22.30
2018-06-04T07:33:41.575Z,22.40
2018-06-04T07:36:11.155Z,22.40
2018-06-04T07:38:40.553Z,22.50
2018-06-04T07:41:09.379Z,22.50
2018-06-04T07:43:38.078Z,22.40
2018-06-04T07:46:06.857Z,22.50
2018-06-04T07:51:04.057Z,22.50
2018-06-04T07:53:32.795Z,22.50
2018-06-04T07:56:02.930Z,22.60
2018-06-04T07:58:31.671Z,22.60
2018-06-04T08:01:00.411Z,22.60
2018-06-04T08:05:57.683Z,22.70
2018-06-04T08:10:54.965Z,22.70
2018-06-04T08:13:23.747Z,22.80
2018-06-04T08:18:21.020Z,22.90
2018-06-04T08:20:49.829Z,22.90
2018-06-04T08:23:18.572Z,23.00
2018-06-04T08:25:47.312Z,23.00
2018-06-04T08:28:16.096Z,23.00
2018-06-04T08:30:44.840Z,23.00
2018-06-04T08:33:13.604Z,23.00
2018-06-04T08:35:42.367Z,23.00
2018-06-04T08:38:11.100Z,22.90
2018-06-04T08:40:39.839Z,22.90
2018-06-04T08:43:08.577Z,23.00
2018-06-04T08:45:37.324Z,23.00
2018-06-04T08:48:06.078Z,23.10
2018-06-04T08:53:03.336Z,23.20
2018-06-04T08:58:00.555Z,23.30
2018-06-04T09:00:29.365Z,23.40
2018-06-04T09:02:58.119Z,23.40
2018-06-04T09:05:28.100Z,23.50
2018-06-04T09:07:56.945Z,23.50
2018-06-04T09:10:25.712Z,23.50
2018-06-04T09:12:54.457Z,23.50
2018-06-04T09:15:23.233Z,23.40
2018-06-04T09:17:52.070Z,23.40
2018-06-04T09:22:49.407Z,23.50
2018-06-04T09:25:18.153Z,23.50
2018-06-04T09:27:47.409Z,23.50
2018-06-04T09:37:42.813Z,23.70
2018-06-04T09:40:11.489Z,23.80
2018-06-04T09:42:40.335Z,23.80
2018-06-04T09:45:09.108Z,23.90
2018-06-04T09:47:37.840Z,23.90
2018-06-04T09:50:06.613Z,23.90
2018-06-04T09:52:35.368Z,23.90
2018-06-04T09:55:04.124Z,23.90
2018-06-04T09:57:32.889Z,24.00
2018-06-04T10:00:01.688Z,24.00
2018-06-04T10:02:30.537Z,24.00
2018-06-04T10:04:59.372Z,24.00
2018-06-04T10:07:28.136Z,24.10
2018-06-04T10:14:53.858Z,24.20
2018-06-04T10:17:22.616Z,24.30
2018-06-04T10:19:51.373Z,24.30
2018-06-04T10:24:48.635Z,24.40
2018-06-04T10:29:45.833Z,24.50
2018-06-04T10:32:14.633Z,24.50
2018-06-04T10:34:43.382Z,24.50
2018-06-04T10:39:40.597Z,24.60
2018-06-04T10:42:09.417Z,24.70
2018-06-04T10:44:38.156Z,24.80
2018-06-04T10:47:06.917Z,24.70
2018-06-04T10:52:04.105Z,24.60
2018-06-04T10:54:32.867Z,24.60
2018-06-04T10:59:30.091Z,24.60
2018-06-04T11:01:59.183Z,24.60
2018-06-04T11:04:27.961Z,24.50
2018-06-04T11:06:56.688Z,24.50
2018-06-04T11:09:25.445Z,24.60
2018-06-04T11:11:54.267Z,24.60
2018-06-04T11:14:23.005Z,24.70
2018-06-04T11:16:51.763Z,24.70
2018-06-04T11:19:20.515Z,24.70
2018-06-04T11:21:49.386Z,24.70
2018-06-04T11:24:18.172Z,24.80
2018-06-04T11:26:46.915Z,24.90
2018-06-04T11:31:44.122Z,25.00
2018-06-04T11:34:12.889Z,25.00
2018-06-04T11:36:41.631Z,24.90
2018-06-04T11:39:10.868Z,24.80
2018-06-04T11:44:08.056Z,24.70
2018-06-04T11:46:36.835Z,24.70
2018-06-04T11:49:05.565Z,24.70
2018-06-04T11:51:34.315Z,24.70
2018-06-04T11:54:03.083Z,24.70
2018-06-04T11:56:31.898Z,24.80
2018-06-04T11:59:00.677Z,24.90
2018-06-04T12:01:29.425Z,25.00
2018-06-04T12:03:58.226Z,25.00
2018-06-04T12:06:26.972Z,25.10
2018-06-04T12:08:55.839Z,25.20
2018-06-04T12:11:24.731Z,25.20
2018-06-04T12:13:53.461Z,25.20
2018-06-04T12:16:22.225Z,25.30
2018-06-04T12:18:50.960Z,25.20
2018-06-04T12:21:19.806Z,25.20
2018-06-04T12:23:48.593Z,25.20
2018-06-04T12:26:17.357Z,25.20
2018-06-04T12:28:46.103Z,25.20
2018-06-04T12:31:14.871Z,25.20
2018-06-04T12:33:44.111Z,25.20
2018-06-04T12:36:12.890Z,25.20
2018-06-04T12:38:41.652Z,25.20
2018-06-04T12:41:10.390Z,25.30
2018-06-04T12:43:39.233Z,25.30
2018-06-04T12:46:07.966Z,25.30
2018-06-04T12:48:36.679Z,25.40
2018-06-04T12:51:05.522Z,25.50
2018-06-04T12:53:34.315Z,25.40
2018-06-04T12:56:03.148Z,25.30
2018-06-04T12:58:31.897Z,25.30
2018-06-04T13:01:00.642Z,25.30
2018-06-04T13:03:29.388Z,25.30
2018-06-04T13:08:26.603Z,25.30
2018-06-04T13:10:55.351Z,25.30
2018-06-04T13:13:24.217Z,25.40
2018-06-04T13:15:52.931Z,25.40
2018-06-04T13:18:21.733Z,25.50
2018-06-04T13:20:50.535Z,25.60
2018-06-04T13:23:19.305Z,25.50
2018-06-04T13:25:48.065Z,25.50
2018-06-04T13:30:45.379Z,25.60
2018-06-04T13:33:14.207Z,25.70
2018-06-04T13:35:42.972Z,25.70
2018-06-04T13:38:11.780Z,25.70
2018-06-04T13:40:40.608Z,25.70
2018-06-04T13:45:42.277Z,25.70
2018-06-04T13:48:12.010Z,25.80
2018-06-04T13:50:40.797Z,25.80
2018-06-04T13:53:09.562Z,25.90
2018-06-04T13:58:06.815Z,26.10
2018-06-04T14:00:35.589Z,26.00
2018-06-04T14:03:04.333Z,26.00
2018-06-04T14:05:33.096Z,25.90
2018-06-04T14:15:27.301Z,25.80
2018-06-04T14:17:56.081Z,25.80
2018-06-04T14:20:24.808Z,25.80
2018-06-04T14:27:50.577Z,25.90
2018-06-04T14:30:19.352Z,26.00
2018-06-04T14:37:45.174Z,26.00
2018-06-04T14:40:13.946Z,26.00
2018-06-04T14:42:42.733Z,26.10
2018-06-04T14:45:11.495Z,26.10
2018-06-04T14:47:40.220Z,26.10
2018-06-04T14:50:09.107Z,26.10
2018-06-04T14:52:37.908Z,26.00
2018-06-04T14:55:06.687Z,26.00
2018-06-04T14:57:35.434Z,26.10
2018-06-04T15:00:04.286Z,26.10
2018-06-04T15:02:33.070Z,26.20
2018-06-04T15:05:01.828Z,26.20
2018-06-04T15:07:30.557Z,26.10
2018-06-04T15:09:59.369Z,26.00
2018-06-04T15:14:56.542Z,26.10
2018-06-04T15:17:25.281Z,26.10
2018-06-04T15:19:54.004Z,26.20
2018-06-04T15:22:22.778Z,26.20
2018-06-04T15:24:51.554Z,26.20
2018-06-04T15:27:20.264Z,26.20
2018-06-04T15:29:49.021Z,26.30
2018-06-04T15:32:17.795Z,26.20
2018-06-04T15:34:46.497Z,26.20
2018-06-04T15:37:15.245Z,26.20
2018-06-04T15:39:44.027Z,26.20
2018-06-04T15:42:12.803Z,26.10
2018-06-04T15:44:41.536Z,26.10
2018-06-04T15:47:10.258Z,26.10
2018-06-04T15:49:39.039Z,26.20
2018-06-04T15:52:07.838Z,26.20
2018-06-04T15:57:05.008Z,26.00
2018-06-04T16:02:02.468Z,25.70
2018-06-04T16:04:31.473Z,25.60
2018-06-04T16:07:00.291Z,25.60
2018-06-04T16:09:29.118Z,25.50
2018-06-04T16:11:57.885Z,25.50
2018-06-04T16:16:55.047Z,25.60
2018-06-04T16:19:23.815Z,25.60
2018-06-04T16:21:52.606Z,25.60
2018-06-04T16:24:21.368Z,25.70
2018-06-04T16:26:50.097Z,25.80
2018-06-04T16:29:18.823Z,25.80
2018-06-04T16:31:47.567Z,25.80
2018-06-04T16:34:16.475Z,25.80
2018-06-04T16:36:45.207Z,25.80
2018-06-04T16:39:13.965Z,25.80
2018-06-04T16:41:42.791Z,25.80
2018-06-04T16:46:42.711Z,25.70
2018-06-04T16:49:15.670Z,25.80
2018-06-04T16:51:44.478Z,25.70
2018-06-04T16:54:13.348Z,25.80
2018-06-04T16:56:42.406Z,25.70
2018-06-04T16:59:13.413Z,25.60
2018-06-04T17:01:42.261Z,25.60
2018-06-04T17:04:11.198Z,25.70
2018-06-04T17:06:40.021Z,25.70
2018-06-04T17:09:08.792Z,25.80
2018-06-04T17:14:06.142Z,25.80
2018-06-04T17:16:34.886Z,25.80
2018-06-04T17:19:03.725Z,25.70
2018-06-04T17:21:32.571Z,25.50
2018-06-04T17:24:01.368Z,25.50
2018-06-04T17:26:30.115Z,25.50
2018-06-04T17:31:27.378Z,25.50
2018-06-04T17:36:24.715Z,25.70
2018-06-04T17:38:53.514Z,25.70
2018-06-04T17:41:22.283Z,25.80
2018-06-04T17:43:51.025Z,25.90
2018-06-04T17:48:48.219Z,26.00
2018-06-04T17:51:16.964Z,26.00
2018-06-04T17:53:45.710Z,25.90
2018-06-04T17:56:14.579Z,25.90
2018-06-04T17:58:43.351Z,26.00
2018-06-04T18:01:12.158Z,26.00
2018-06-04T18:03:40.902Z,25.90
2018-06-04T18:06:09.678Z,25.90
2018-06-04T18:08:38.486Z,25.90
2018-06-04T18:11:07.311Z,25.90
2018-06-04T18:13:36.079Z,25.80
2018-06-04T18:16:04.950Z,25.90
2018-06-04T18:18:33.739Z,25.90
2018-06-04T18:21:02.633Z,25.90
2018-06-04T18:23:31.399Z,25.80
2018-06-04T18:26:00.155Z,25.90
2018-06-04T18:28:28.921Z,26.00
2018-06-04T18:30:57.674Z,26.30
2018-06-04T18:33:26.440Z,26.70
2018-06-04T18:35:55.202Z,26.90
2018-06-04T18:38:23.940Z,27.00
2018-06-04T18:40:52.856Z,27.10
2018-06-04T18:45:50.085Z,26.50
2018-06-04T18:48:18.873Z,26.20
2018-06-04T18:50:47.648Z,26.00
2018-06-04T18:53:16.371Z,25.90
2018-06-04T18:55:45.116Z,25.80
2018-06-04T18:58:13.859Z,25.70
2018-06-04T19:03:11.165Z,25.50
2018-06-04T19:05:39.873Z,25.40
2018-06-04T19:08:08.623Z,25.40
2018-06-04T19:13:12.615Z,25.30
2018-06-04T19:15:41.390Z,25.30
2018-06-04T19:18:10.167Z,25.30
2018-06-04T19:20:38.892Z,25.20
2018-06-04T19:23:07.704Z,25.20
2018-06-04T19:25:36.456Z,25.20
2018-06-04T19:28:05.557Z,25.10
2018-06-04T19:30:34.377Z,25.10
2018-06-04T19:35:31.564Z,24.90
2018-06-04T19:38:01.255Z,24.90
2018-06-04T19:40:30.073Z,24.80
2018-06-04T19:42:58.949Z,24.70
2018-06-04T19:45:27.707Z,24.70
2018-06-04T19:47:56.571Z,24.70
2018-06-04T19:50:25.468Z,24.50
2018-06-04T19:52:54.190Z,24.50
2018-06-04T19:55:23.010Z,24.50
2018-06-04T19:57:51.974Z,24.50
2018-06-04T20:00:20.770Z,24.30
2018-06-04T20:02:49.584Z,24.30
2018-06-04T20:05:18.328Z,24.10
2018-06-04T20:10:15.561Z,24.00
2018-06-04T20:12:44.393Z,24.00
2018-06-04T20:17:41.660Z,24.00
2018-06-04T20:20:10.398Z,23.90
2018-06-04T20:22:39.226Z,23.90
2018-06-04T20:25:07.998Z,23.90
2018-06-04T20:27:36.724Z,23.80
2018-06-04T20:30:05.789Z,23.60
2018-06-04T20:32:34.552Z,23.60
2018-06-04T20:35:03.360Z,23.60
2018-06-04T20:37:32.095Z,23.50
2018-06-04T20:40:00.862Z,23.40
2018-06-04T20:42:29.628Z,23.40
2018-06-04T20:44:58.431Z,23.50
2018-06-04T20:47:27.277Z,23.40
2018-06-04T20:49:56.110Z,23.30
2018-06-04T20:52:24.856Z,23.30
2018-06-04T20:54:53.693Z,23.30
2018-06-04T20:59:50.924Z,23.20
2018-06-04T21:02:19.716Z,23.20
2018-06-04T21:04:48.572Z,23.10
2018-06-04T21:07:17.378Z,23.10
2018-06-04T21:09:46.198Z,23.00
2018-06-04T21:12:15.011Z,23.00
2018-06-04T21:14:43.817Z,22.90
2018-06-04T21:17:12.654Z,22.80
2018-06-04T21:19:41.541Z,22.70
2018-06-04T21:22:10.417Z,22.60
2018-06-04T21:24:39.459Z,22.60
2018-06-04T21:27:08.319Z,22.50
2018-06-04T21:29:37.145Z,22.50
2018-06-04T21:32:05.963Z,22.50
2018-06-04T21:34:34.753Z,22.40
2018-06-04T21:37:03.593Z,22.40
2018-06-04T21:39:32.370Z,22.30
2018-06-04T21:42:01.170Z,22.20
2018-06-04T21:44:29.939Z,22.20
2018-06-04T21:46:58.744Z,22.10
2018-06-04T21:49:27.558Z,22.10
2018-06-04T21:51:56.356Z,22.10
2018-06-04T21:54:25.132Z,22.00
2018-06-04T21:56:53.849Z,21.90
2018-06-04T21:59:22.654Z,21.90
2018-06-04T22:01:51.439Z,21.80
2018-06-04T22:04:20.220Z,21.70
2018-06-04T22:06:48.991Z,21.70
2018-06-04T22:11:46.216Z,21.80
2018-06-04T22:14:14.961Z,21.70
2018-06-04T22:16:43.881Z,21.70
2018-06-04T22:19:12.591Z,21.70
2018-06-04T22:21:41.435Z,21.70
2018-06-04T22:24:10.308Z,21.70
2018-06-04T22:31:36.042Z,21.80
2018-06-04T22:36:33.419Z,21.60
2018-06-04T22:39:02.183Z,21.60
2018-06-04T22:41:30.939Z,21.70
2018-06-04T22:43:59.791Z,21.60
2018-06-04T22:48:57.015Z,21.20
2018-06-04T22:51:25.779Z,21.10
2018-06-04T22:53:54.559Z,21.10
2018-06-04T22:56:23.450Z,21.20
2018-06-04T22:58:52.215Z,21.30
2018-06-04T23:01:20.998Z,21.20
2018-06-04T23:03:49.786Z,21.30
2018-06-04T23:06:18.528Z,21.20
2018-06-04T23:08:47.335Z,21.10
2018-06-04T23:11:16.063Z,21.10
2018-06-04T23:13:44.849Z,21.00
2018-06-04T23:18:42.084Z,21.20
2018-06-04T23:21:10.881Z,21.10
2018-06-04T23:23:39.645Z,21.10
2018-06-04T23:26:08.413Z,21.20
2018-06-04T23:28:37.144Z,21.20
2018-06-04T23:31:05.932Z,21.20
2018-06-04T23:33:34.697Z,21.10
2018-06-04T23:36:03.457Z,21.10
2018-06-04T23:38:32.217Z,21.00
2018-06-04T23:41:00.983Z,21.00
2018-06-04T23:43:29.740Z,21.00
2018-06-04T23:45:58.499Z,21.00
2018-06-04T23:50:55.732Z,20.80
2018-06-04T23:53:24.471Z,20.70
2018-06-04T23:55:53.233Z,20.80
